createdAt,value
2017-12-20T00:00:46.816Z,3.03
2017-12-20T00:03:15.142Z,2.20
2017-12-20T00:05:43.498Z,2.35
2017-12-20T00:08:11.836Z,2.10
2017-12-20T00:10:40.199Z,2.37
2017-12-20T00:13:08.558Z,2.40
2017-12-20T00:15:36.905Z,2.70
2017-12-20T00:18:05.254Z,2.60
2017-12-20T00:20:33.586Z,2.43
2017-12-20T00:23:02.002Z,2.67
2017-12-20T00:25:30.375Z,1.00
2017-12-20T00:27:58.710Z,0.83
2017-12-20T00:30:27.053Z,1.80
2017-12-20T00:32:55.391Z,1.23
2017-12-20T00:35:23.442Z,1.40
2017-12-20T00:37:51.535Z,3.40
2017-12-20T00:40:19.601Z,2.85
2017-12-20T00:42:47.952Z,2.90
2017-12-20T00:45:16.321Z,1.90
2017-12-20T00:47:44.666Z,1.00
2017-12-20T00:50:13.062Z,0.80
2017-12-20T00:52:41.394Z,0.80
2017-12-20T00:55:09.748Z,1.08
2017-12-20T00:57:38.079Z,0.70
2017-12-20T01:00:06.568Z,0.60
2017-12-20T01:02:34.907Z,0.67
2017-12-20T01:05:03.245Z,0.90
2017-12-20T01:07:31.600Z,1.60
2017-12-20T01:10:00.035Z,1.30
2017-12-20T01:12:28.409Z,1.20
2017-12-20T01:14:56.763Z,2.30
2017-12-20T01:17:25.106Z,4.93
2017-12-20T01:19:53.456Z,3.60
2017-12-20T01:22:21.811Z,3.30
2017-12-20T01:24:50.181Z,3.10
2017-12-20T01:27:18.519Z,0.90
2017-12-20T01:29:46.862Z,2.30
2017-12-20T01:32:15.196Z,1.97
2017-12-20T01:34:43.521Z,1.50
2017-12-20T01:37:11.894Z,1.30
2017-12-20T01:39:40.240Z,4.83
2017-12-20T01:42:08.580Z,1.17
2017-12-20T01:44:36.961Z,1.43
2017-12-20T01:47:05.326Z,2.50
2017-12-20T01:49:33.684Z,2.95
2017-12-20T01:52:02.033Z,1.98
2017-12-20T01:54:30.390Z,1.63
2017-12-20T01:56:58.864Z,1.43
2017-12-20T01:59:27.205Z,1.70
2017-12-20T02:01:55.544Z,1.40
2017-12-20T02:04:23.878Z,1.53
2017-12-20T02:06:52.223Z,1.90
2017-12-20T02:09:20.617Z,1.20
2017-12-20T02:11:48.964Z,1.17
2017-12-20T02:14:17.319Z,1.00
2017-12-20T02:16:45.643Z,0.90
2017-12-20T02:19:13.976Z,0.70
2017-12-20T02:21:42.314Z,1.07
2017-12-20T02:24:10.648Z,1.83
2017-12-20T02:26:39.010Z,2.70
2017-12-20T02:29:07.344Z,3.07
2017-12-20T02:31:35.674Z,2.40
2017-12-20T02:34:04.010Z,1.13
2017-12-20T02:36:32.355Z,1.00
2017-12-20T02:39:05.472Z,0.90
2017-12-20T02:41:33.804Z,0.87
2017-12-20T02:44:02.139Z,0.80
2017-12-20T02:46:30.470Z,0.90
2017-12-20T02:48:58.847Z,1.67
2017-12-20T02:51:27.216Z,1.37
2017-12-20T02:53:55.549Z,1.10
2017-12-20T02:56:23.887Z,1.07
2017-12-20T02:58:52.210Z,1.27
2017-12-20T03:01:20.554Z,1.03
2017-12-20T03:03:48.883Z,1.07
2017-12-20T03:06:17.347Z,0.90
2017-12-20T03:08:45.674Z,0.90
2017-12-20T03:11:13.997Z,0.70
2017-12-20T03:13:42.346Z,1.00
2017-12-20T03:16:10.716Z,0.93
2017-12-20T03:18:39.030Z,1.07
2017-12-20T03:21:07.358Z,1.30
2017-12-20T03:23:35.814Z,0.63
2017-12-20T03:26:04.158Z,0.80
2017-12-20T03:28:32.547Z,0.80
2017-12-20T03:31:00.880Z,1.17
2017-12-20T03:33:29.214Z,0.93
2017-12-20T03:35:57.544Z,1.00
2017-12-20T03:38:25.908Z,0.70
2017-12-20T03:40:54.258Z,0.80
2017-12-20T03:43:22.602Z,0.80
2017-12-20T03:45:50.930Z,1.07
2017-12-20T03:48:19.262Z,0.90
2017-12-20T03:50:47.597Z,0.60
2017-12-20T03:53:15.969Z,0.87
2017-12-20T03:55:44.327Z,0.67
2017-12-20T03:58:12.650Z,0.77
2017-12-20T04:00:41.028Z,0.63
2017-12-20T04:03:09.345Z,0.80
2017-12-20T04:05:37.706Z,0.63
2017-12-20T04:08:06.068Z,1.13
2017-12-20T04:10:34.394Z,1.00
2017-12-20T04:13:02.731Z,0.93
2017-12-20T04:15:31.054Z,0.60
2017-12-20T04:17:59.392Z,0.90
2017-12-20T04:20:27.747Z,0.70
2017-12-20T04:22:56.104Z,0.83
2017-12-20T04:25:24.422Z,0.83
2017-12-20T04:27:52.758Z,0.70
2017-12-20T04:30:21.095Z,0.80
2017-12-20T04:32:49.462Z,0.60
2017-12-20T04:35:17.797Z,0.50
2017-12-20T04:37:46.134Z,0.83
2017-12-20T04:40:14.453Z,1.00
2017-12-20T04:42:42.790Z,1.00
2017-12-20T04:45:11.157Z,0.83
2017-12-20T04:47:39.483Z,0.87
2017-12-20T04:50:07.810Z,1.00
2017-12-20T04:52:36.137Z,1.10
2017-12-20T04:55:04.460Z,0.80
2017-12-20T04:57:32.802Z,1.03
2017-12-20T05:00:01.131Z,1.43
2017-12-20T05:02:29.454Z,1.27
2017-12-20T05:04:57.947Z,1.20
2017-12-20T05:07:26.264Z,1.30
2017-12-20T05:09:54.601Z,1.40
2017-12-20T05:12:22.970Z,1.20
2017-12-20T05:14:51.323Z,1.20
2017-12-20T05:17:19.667Z,1.40
2017-12-20T05:19:48.013Z,1.50
2017-12-20T05:22:16.339Z,1.20
2017-12-20T05:24:44.719Z,1.13
2017-12-20T05:27:13.046Z,1.50
2017-12-20T05:29:41.384Z,1.40
2017-12-20T05:32:09.725Z,1.20
2017-12-20T05:34:38.043Z,1.20
2017-12-20T05:37:06.407Z,1.30
2017-12-20T05:39:34.745Z,1.60
2017-12-20T05:42:03.087Z,1.50
2017-12-20T05:44:31.421Z,1.83
2017-12-20T05:46:59.746Z,1.80
2017-12-20T05:49:28.107Z,2.60
2017-12-20T05:51:56.446Z,2.53
2017-12-20T05:54:24.776Z,2.30
2017-12-20T05:56:53.106Z,2.00
2017-12-20T05:59:21.450Z,2.57
2017-12-20T06:01:49.824Z,2.30
2017-12-20T06:04:18.155Z,2.10
2017-12-20T06:09:21.075Z,2.17
2017-12-20T06:11:49.423Z,2.33
2017-12-20T06:14:17.798Z,1.97
2017-12-20T06:16:46.126Z,2.20
2017-12-20T06:19:14.456Z,1.90
2017-12-20T06:21:42.781Z,2.20
2017-12-20T06:24:11.110Z,2.60
2017-12-20T06:26:39.482Z,2.40
2017-12-20T06:29:07.799Z,2.83
2017-12-20T06:31:36.140Z,1.93
2017-12-20T06:34:04.483Z,2.13
2017-12-20T06:36:32.810Z,2.20
2017-12-20T06:39:01.371Z,1.67
2017-12-20T06:41:29.712Z,1.80
2017-12-20T06:43:58.035Z,1.60
2017-12-20T06:46:26.370Z,2.50
2017-12-20T06:48:54.711Z,7.57
2017-12-20T06:51:23.066Z,5.00
2017-12-20T06:53:51.419Z,4.40
2017-12-20T07:00:03.709Z,6.10
2017-12-20T07:02:32.091Z,4.00
2017-12-20T07:05:00.415Z,1.87
2017-12-20T07:07:28.738Z,2.20
2017-12-20T07:09:57.072Z,2.57
2017-12-20T07:12:25.397Z,1.60
2017-12-20T07:14:53.809Z,1.73
2017-12-20T07:17:22.155Z,1.30
2017-12-20T07:19:50.498Z,2.00
2017-12-20T07:22:18.831Z,1.60
2017-12-20T07:24:47.162Z,1.57
2017-12-20T07:27:15.531Z,1.50
2017-12-20T07:29:43.899Z,1.30
2017-12-20T07:32:12.237Z,1.50
2017-12-20T07:34:40.562Z,1.57
2017-12-20T07:37:08.897Z,2.87
2017-12-20T07:39:37.237Z,1.70
2017-12-20T07:42:05.558Z,1.77
2017-12-20T07:44:33.914Z,1.83
2017-12-20T07:47:02.250Z,3.07
2017-12-20T07:49:30.596Z,3.10
2017-12-20T07:51:58.925Z,2.00
2017-12-20T07:54:27.256Z,2.67
2017-12-20T07:56:55.595Z,2.40
2017-12-20T07:59:23.926Z,2.63
2017-12-20T08:01:52.272Z,3.17
2017-12-20T08:04:20.605Z,2.70
2017-12-20T08:06:48.934Z,8.20
2017-12-20T08:09:17.274Z,2.80
2017-12-20T08:11:45.606Z,2.20
2017-12-20T08:14:13.952Z,2.20
2017-12-20T08:16:42.328Z,2.00
2017-12-20T08:19:10.732Z,2.03
2017-12-20T08:21:39.057Z,2.60
2017-12-20T08:24:07.408Z,3.30
2017-12-20T08:26:35.752Z,3.43
2017-12-20T08:29:04.109Z,3.73
2017-12-20T08:31:32.444Z,2.90
2017-12-20T08:34:00.764Z,3.33
2017-12-20T08:36:29.095Z,3.37
2017-12-20T08:38:57.425Z,2.90
2017-12-20T08:41:25.834Z,2.63
2017-12-20T08:43:54.345Z,2.50
2017-12-20T08:46:22.700Z,2.70
2017-12-20T08:48:51.057Z,2.47
2017-12-20T08:51:19.388Z,2.87
2017-12-20T08:53:47.743Z,3.47
2017-12-20T08:56:16.075Z,4.07
2017-12-20T08:58:44.454Z,4.10
2017-12-20T09:01:12.784Z,3.90
2017-12-20T09:03:41.919Z,4.07
2017-12-20T09:06:10.247Z,3.47
2017-12-20T09:08:38.586Z,3.20
2017-12-20T09:11:06.937Z,2.57
2017-12-20T09:13:35.305Z,3.37
2017-12-20T09:16:03.646Z,2.43
2017-12-20T09:18:31.980Z,2.50
2017-12-20T09:21:00.339Z,1.50
2017-12-20T09:23:28.689Z,3.30
2017-12-20T09:25:57.082Z,1.40
2017-12-20T09:28:25.518Z,1.60
2017-12-20T09:30:54.129Z,1.50
2017-12-20T09:33:22.522Z,1.50
2017-12-20T09:35:50.859Z,2.13
2017-12-20T09:38:19.340Z,2.40
2017-12-20T09:40:47.665Z,2.00
2017-12-20T09:43:16.011Z,1.90
2017-12-20T09:45:44.345Z,1.57
2017-12-20T09:48:12.682Z,1.87
2017-12-20T09:50:41.038Z,1.80
2017-12-20T09:53:09.379Z,1.87
2017-12-20T09:55:37.720Z,1.63
2017-12-20T09:58:06.073Z,1.60
2017-12-20T10:00:34.421Z,1.37
2017-12-20T10:03:02.887Z,1.80
2017-12-20T10:05:31.230Z,1.50
2017-12-20T10:07:59.579Z,1.70
2017-12-20T10:10:27.910Z,1.43
2017-12-20T10:12:56.262Z,1.53
2017-12-20T10:15:24.599Z,1.70
2017-12-20T10:17:53.269Z,1.50
2017-12-20T10:20:21.764Z,1.23
2017-12-20T10:22:50.105Z,1.03
2017-12-20T10:25:18.463Z,1.93
2017-12-20T10:27:46.806Z,1.87
2017-12-20T10:30:15.154Z,1.57
2017-12-20T10:32:43.644Z,1.17
2017-12-20T10:35:11.982Z,1.17
2017-12-20T10:37:40.341Z,1.20
2017-12-20T10:40:08.680Z,1.00
2017-12-20T10:42:37.022Z,1.10
2017-12-20T10:45:05.406Z,0.97
2017-12-20T10:47:33.772Z,1.10
2017-12-20T10:50:02.127Z,0.90
2017-12-20T10:52:30.450Z,0.80
2017-12-20T10:54:58.807Z,1.63
2017-12-20T10:57:27.165Z,1.40
2017-12-20T10:59:55.512Z,1.83
2017-12-20T11:02:23.851Z,1.40
2017-12-20T11:04:52.183Z,2.00
2017-12-20T11:07:20.525Z,1.60
2017-12-20T11:09:48.944Z,2.10
2017-12-20T11:12:17.277Z,2.10
2017-12-20T11:14:45.630Z,1.83
2017-12-20T11:17:13.959Z,2.10
2017-12-20T11:19:42.303Z,1.83
2017-12-20T11:22:10.668Z,1.87
2017-12-20T11:24:39.093Z,3.70
2017-12-20T11:27:07.425Z,3.17
2017-12-20T11:29:35.773Z,2.27
2017-12-20T11:32:04.128Z,1.77
2017-12-20T11:34:32.496Z,2.27
2017-12-20T11:37:00.880Z,1.60
2017-12-20T11:39:29.245Z,1.80
2017-12-20T11:41:57.620Z,1.43
2017-12-20T11:44:25.965Z,1.37
2017-12-20T11:46:54.312Z,1.30
2017-12-20T11:49:22.657Z,1.17
2017-12-20T11:51:54.853Z,1.20
2017-12-20T11:54:23.501Z,0.90
2017-12-20T11:56:51.826Z,1.00
2017-12-20T11:59:20.176Z,1.30
2017-12-20T12:01:48.560Z,1.50
2017-12-20T12:04:16.907Z,1.53
2017-12-20T12:06:45.242Z,2.00
2017-12-20T12:09:13.629Z,1.87
2017-12-20T12:11:41.982Z,2.20
2017-12-20T12:14:10.334Z,2.30
2017-12-20T12:16:38.660Z,3.60
2017-12-20T12:19:07.012Z,2.53
2017-12-20T12:21:35.477Z,2.20
2017-12-20T12:24:04.023Z,2.07
2017-12-20T12:26:32.406Z,2.50
2017-12-20T12:29:00.757Z,3.00
2017-12-20T12:31:29.089Z,2.73
2017-12-20T12:33:57.458Z,3.60
2017-12-20T12:36:25.839Z,3.40
2017-12-20T12:38:54.167Z,2.40
2017-12-20T12:41:22.514Z,4.57
2017-12-20T12:43:50.913Z,3.50
2017-12-20T12:46:19.290Z,5.40
2017-12-20T12:48:47.646Z,6.27
2017-12-20T12:51:15.978Z,6.53
2017-12-20T12:53:44.357Z,4.10
2017-12-20T12:56:12.699Z,3.40
2017-12-20T12:58:41.043Z,3.10
2017-12-20T13:01:09.378Z,3.07
2017-12-20T13:03:37.937Z,4.43
2017-12-20T13:06:06.355Z,4.27
2017-12-20T13:08:34.701Z,3.53
2017-12-20T13:11:03.045Z,3.00
2017-12-20T13:13:31.870Z,5.23
2017-12-20T13:16:00.965Z,4.60
2017-12-20T13:18:30.236Z,4.10
2017-12-20T13:20:58.576Z,4.03
2017-12-20T13:23:26.902Z,4.10
2017-12-20T13:25:55.243Z,2.93
2017-12-20T13:28:23.653Z,2.60
2017-12-20T13:30:52.157Z,2.70
2017-12-20T13:33:20.493Z,2.70
2017-12-20T13:35:48.835Z,2.90
2017-12-20T13:38:17.182Z,2.73
2017-12-20T13:40:45.571Z,2.77
2017-12-20T13:43:13.931Z,2.97
2017-12-20T13:45:42.283Z,3.30
2017-12-20T13:48:10.649Z,2.83
2017-12-20T13:50:38.983Z,4.30
2017-12-20T13:53:07.469Z,5.00
2017-12-20T13:55:35.804Z,4.10
2017-12-20T13:58:04.137Z,3.30
2017-12-20T14:00:32.477Z,3.50
2017-12-20T14:03:00.907Z,3.30
2017-12-20T14:05:29.257Z,3.90
2017-12-20T14:07:57.582Z,5.47
2017-12-20T14:10:25.984Z,3.90
2017-12-20T14:12:54.335Z,2.77
2017-12-20T14:15:22.671Z,3.57
2017-12-20T14:17:50.998Z,3.83
2017-12-20T14:20:19.339Z,4.10
2017-12-20T14:22:47.724Z,3.57
2017-12-20T14:28:07.987Z,4.37
2017-12-20T14:30:36.344Z,3.67
2017-12-20T14:33:04.677Z,3.47
2017-12-20T14:35:33.014Z,3.20
2017-12-20T14:38:01.359Z,3.33
2017-12-20T14:40:29.736Z,4.63
2017-12-20T14:42:58.068Z,3.63
2017-12-20T14:45:26.486Z,3.20
2017-12-20T14:47:54.836Z,3.37
2017-12-20T14:50:23.178Z,3.20
2017-12-20T14:52:51.590Z,3.43
2017-12-20T14:55:19.946Z,3.57
2017-12-20T14:57:48.287Z,4.00
2017-12-20T15:00:18.359Z,3.20
2017-12-20T15:02:46.709Z,5.00
2017-12-20T15:05:15.151Z,3.93
2017-12-20T15:07:43.479Z,3.10
2017-12-20T15:10:11.812Z,3.10
2017-12-20T15:12:40.145Z,2.50
2017-12-20T15:15:08.489Z,2.13
2017-12-20T15:17:36.869Z,2.03
2017-12-20T15:20:05.193Z,3.93
2017-12-20T15:22:33.551Z,1.90
2017-12-20T15:25:01.893Z,1.70
2017-12-20T15:27:30.240Z,1.70
2017-12-20T15:29:58.708Z,1.50
2017-12-20T15:32:27.038Z,1.63
2017-12-20T15:34:55.370Z,1.70
2017-12-20T15:37:23.721Z,1.70
2017-12-20T15:39:52.080Z,1.63
2017-12-20T15:42:20.418Z,2.43
2017-12-20T15:44:48.753Z,4.07
2017-12-20T15:47:17.134Z,3.00
2017-12-20T15:49:45.490Z,2.77
2017-12-20T15:52:13.827Z,2.60
2017-12-20T15:54:42.165Z,2.73
2017-12-20T15:57:10.582Z,2.40
2017-12-20T15:59:38.967Z,2.83
2017-12-20T16:02:07.298Z,2.67
2017-12-20T16:04:35.645Z,2.87
2017-12-20T16:07:03.969Z,3.30
2017-12-20T16:09:32.311Z,5.40
2017-12-20T16:12:00.652Z,6.30
2017-12-20T16:14:28.986Z,5.53
2017-12-20T16:16:57.323Z,4.50
2017-12-20T16:19:25.673Z,3.10
2017-12-20T16:21:54.076Z,2.70
2017-12-20T16:24:22.443Z,3.00
2017-12-20T16:26:50.778Z,1.80
2017-12-20T16:29:19.114Z,2.00
2017-12-20T16:31:47.449Z,2.63
2017-12-20T16:34:15.790Z,2.00
2017-12-20T16:36:44.138Z,2.43
2017-12-20T16:39:12.513Z,2.47
2017-12-20T16:41:40.858Z,1.90
2017-12-20T16:44:09.216Z,2.93
2017-12-20T16:46:37.560Z,1.80
2017-12-20T16:49:05.898Z,3.30
2017-12-20T16:51:34.269Z,2.23
2017-12-20T16:54:02.596Z,2.90
2017-12-20T16:56:30.949Z,2.60
2017-12-20T16:58:59.293Z,2.80
2017-12-20T17:01:27.652Z,2.70
2017-12-20T17:03:55.990Z,3.30
2017-12-20T17:06:24.328Z,3.17
2017-12-20T17:08:52.661Z,6.00
2017-12-20T17:11:20.997Z,3.93
2017-12-20T17:13:49.334Z,3.40
2017-12-20T17:16:17.714Z,5.10
2017-12-20T17:18:46.044Z,5.10
2017-12-20T17:21:14.408Z,5.13
2017-12-20T17:23:42.802Z,4.37
2017-12-20T17:26:11.336Z,2.77
2017-12-20T17:28:39.673Z,4.97
2017-12-20T17:31:08.005Z,4.83
2017-12-20T17:33:36.395Z,4.03
2017-12-20T17:36:04.686Z,7.50
2017-12-20T17:38:33.027Z,4.30
2017-12-20T17:41:01.361Z,3.83
2017-12-20T17:43:29.699Z,4.03
2017-12-20T17:45:58.071Z,3.47
2017-12-20T17:48:26.403Z,4.73
2017-12-20T17:50:54.773Z,3.60
2017-12-20T17:53:23.111Z,6.97
2017-12-20T17:55:51.467Z,11.80
2017-12-20T17:58:19.807Z,17.33
2017-12-20T18:00:48.157Z,17.50
2017-12-20T18:03:16.506Z,5.07
2017-12-20T18:05:44.855Z,3.83
2017-12-20T18:08:13.185Z,3.40
2017-12-20T18:10:42.507Z,5.40
2017-12-20T18:13:10.862Z,4.17
2017-12-20T18:15:39.253Z,4.40
2017-12-20T18:18:07.597Z,4.23
2017-12-20T18:20:35.941Z,5.97
2017-12-20T18:23:04.337Z,6.00
2017-12-20T18:25:32.680Z,10.10
2017-12-20T18:28:01.099Z,9.87
2017-12-20T18:30:29.444Z,10.40
2017-12-20T18:32:57.812Z,8.00
2017-12-20T18:35:26.158Z,6.43
2017-12-20T18:37:54.505Z,7.47
2017-12-20T18:40:22.854Z,6.40
2017-12-20T18:42:51.193Z,5.67
2017-12-20T18:45:19.550Z,4.67
2017-12-20T18:47:47.903Z,4.40
2017-12-20T18:50:16.240Z,6.77
2017-12-20T18:52:44.585Z,5.37
2017-12-20T18:55:12.926Z,4.47
2017-12-20T18:57:41.427Z,4.30
2017-12-20T19:00:09.792Z,5.20
2017-12-20T19:02:38.131Z,6.33
2017-12-20T19:05:06.480Z,5.30
2017-12-20T19:07:34.822Z,8.90
2017-12-20T19:10:03.194Z,9.77
2017-12-20T19:12:31.535Z,6.63
2017-12-20T19:14:59.911Z,5.70
2017-12-20T19:17:28.246Z,5.17
2017-12-20T19:19:56.578Z,5.00
2017-12-20T19:22:24.918Z,4.60
2017-12-20T19:24:53.263Z,4.70
2017-12-20T19:27:21.747Z,4.03
2017-12-20T19:29:50.104Z,4.27
2017-12-20T19:32:18.430Z,6.33
2017-12-20T19:34:46.803Z,6.53
2017-12-20T19:37:15.162Z,4.37
2017-12-20T19:39:43.539Z,4.80
2017-12-20T19:42:11.933Z,5.80
2017-12-20T19:44:40.279Z,5.30
2017-12-20T19:49:43.410Z,4.70
2017-12-20T19:52:11.863Z,4.93
2017-12-20T19:54:40.286Z,5.70
2017-12-20T19:57:08.635Z,4.97
2017-12-20T19:59:36.999Z,5.47
2017-12-20T20:02:05.355Z,5.53
2017-12-20T20:04:33.721Z,6.10
2017-12-20T20:07:02.074Z,5.33
2017-12-20T20:09:30.447Z,5.80
2017-12-20T20:11:58.777Z,6.10
2017-12-20T20:14:27.167Z,5.90
2017-12-20T20:16:55.501Z,5.80
2017-12-20T20:19:23.893Z,5.97
2017-12-20T20:21:52.275Z,6.10
2017-12-20T20:24:20.615Z,7.20
2017-12-20T20:26:48.990Z,9.47
2017-12-20T20:29:17.492Z,5.67
2017-12-20T20:31:46.088Z,7.53
2017-12-20T20:34:14.521Z,4.80
2017-12-20T20:36:42.897Z,3.97
2017-12-20T20:39:11.230Z,4.57
2017-12-20T20:41:39.602Z,3.90
2017-12-20T20:44:07.990Z,4.53
2017-12-20T20:46:36.327Z,4.70
2017-12-20T20:49:04.675Z,4.80
2017-12-20T20:51:33.039Z,4.73
2017-12-20T20:54:01.431Z,5.30
2017-12-20T20:56:30.000Z,5.13
2017-12-20T20:58:59.797Z,6.97
2017-12-20T21:01:28.255Z,5.43
2017-12-20T21:03:56.814Z,5.37
2017-12-20T21:06:25.154Z,5.80
2017-12-20T21:08:53.523Z,5.03
2017-12-20T21:11:21.866Z,6.80
2017-12-20T21:13:50.211Z,5.90
2017-12-20T21:16:18.562Z,6.80
2017-12-20T21:18:46.915Z,6.80
2017-12-20T21:21:15.321Z,8.40
2017-12-20T21:23:43.652Z,7.30
2017-12-20T21:26:11.996Z,10.90
2017-12-20T21:28:40.338Z,10.47
2017-12-20T21:31:08.689Z,7.97
2017-12-20T21:33:38.435Z,5.37
2017-12-20T21:36:06.787Z,6.00
2017-12-20T21:38:35.129Z,5.80
2017-12-20T21:41:03.467Z,5.97
2017-12-20T21:43:31.811Z,5.30
2017-12-20T21:46:00.169Z,5.80
2017-12-20T21:48:28.503Z,5.70
2017-12-20T21:50:56.842Z,6.57
2017-12-20T21:53:25.170Z,6.60
2017-12-20T21:55:53.518Z,6.13
2017-12-20T21:58:21.878Z,5.23
2017-12-20T22:00:50.216Z,5.80
2017-12-20T22:03:18.564Z,5.83
2017-12-20T22:05:46.894Z,6.40
2017-12-20T22:08:15.775Z,6.10
2017-12-20T22:10:44.190Z,6.03
2017-12-20T22:13:12.516Z,5.60
2017-12-20T22:15:40.855Z,5.73
2017-12-20T22:18:09.187Z,5.30
2017-12-20T22:20:37.515Z,6.57
2017-12-20T22:23:05.903Z,5.57
2017-12-20T22:25:34.225Z,5.43
2017-12-20T22:28:02.572Z,6.77
2017-12-20T22:30:30.910Z,7.10
2017-12-20T22:32:59.260Z,6.77
2017-12-20T22:35:27.632Z,6.63
2017-12-20T22:37:55.971Z,6.20
2017-12-20T22:40:24.302Z,5.40
2017-12-20T22:42:52.632Z,7.00
2017-12-20T22:45:20.961Z,7.30
2017-12-20T22:47:49.302Z,7.93
2017-12-20T22:50:17.717Z,12.20
2017-12-20T22:52:46.017Z,10.67
2017-12-20T22:55:14.369Z,6.93
2017-12-20T22:57:42.711Z,5.17
2017-12-20T23:00:11.093Z,5.23
2017-12-20T23:02:39.425Z,6.30
2017-12-20T23:05:07.757Z,4.73
2017-12-20T23:07:36.094Z,5.70
2017-12-20T23:10:04.433Z,6.57
2017-12-20T23:12:32.782Z,5.23
2017-12-20T23:15:01.168Z,10.67
2017-12-20T23:17:29.511Z,10.73
2017-12-20T23:19:57.875Z,6.43
2017-12-20T23:22:26.210Z,4.90
2017-12-20T23:24:54.541Z,5.93
2017-12-20T23:27:22.894Z,10.87
2017-12-20T23:29:51.241Z,18.23
2017-12-20T23:32:19.594Z,9.70
2017-12-20T23:34:47.953Z,5.70
2017-12-20T23:37:16.294Z,5.10
2017-12-20T23:39:44.766Z,5.50
2017-12-20T23:42:13.077Z,4.53
2017-12-20T23:44:41.433Z,5.00
2017-12-20T23:47:09.854Z,4.20
2017-12-20T23:49:38.126Z,4.13
2017-12-20T23:52:06.599Z,4.30
2017-12-20T23:54:34.937Z,4.70
2017-12-20T23:57:03.286Z,4.17
2017-12-20T23:59:31.648Z,4.77
